Historique des mesures à Cassis (13260), France
Quotidien Résumé Avril 20, 2017 Unités:  US    Métrique   Métrique/US
« Précédent (Jour)
Suivant (Jour) »
Quotidien Hebdomadaire Mensuel Annuel Période au choix
  Maximum: Minimum: Moyenne:
Température: 32 °F 46 °F 53.6 °F
Point de rosée: 32 °F 26.1 °F 32 °F
Humidité: Humidity % 26 % 43 %
Vitesse du vent: WindSpeedKMH mph 0.0 mph 7.9 mph
Rafales: WindSpeedGustKMH mph - -
Vent:- - WSW
Pression: 0 in 30.1 in -
Précipitations: 0 in    
Historical Graphs
 
 
Mesures pour : Avril 20, 2017
Heure Temperature Point de rosée Pression Vent Vitesse du vent Rafales Humidité Pluie (par heure) Conditions
32 °F 32 °F 0 in Calm     Humidity % 0 in SoftwareType W/m2
00:11 51.1 °F 33.3 °F 30.1 in Calm     50 % 0 in open2300-1.11 W/m2
01:10 49.8 °F 33.8 °F 30.1 in Calm     54 % 0 in open2300-1.11 W/m2
02:10 47.8 °F 34.7 °F 30.1 in NW 3.2 mph 7.2 mph 60 % 0 in open2300-1.11 W/m2
03:11 46.8 °F 35.6 °F 30.1 in NW 11.6 mph 11.6 mph 65 % 0 in open2300-1.11 W/m2
04:10 46.4 °F 35.6 °F 30.1 in NNE 4.0 mph 11.6 mph 66 % 0 in open2300-1.11 W/m2
05:11 46 °F 35.8 °F 30.1 in NNW 9.7 mph 9.7 mph 67 % 0 in open2300-1.11 W/m2
06:11 46 °F 35.2 °F 30.1 in WSW 3.2 mph 3.2 mph 66 % 0 in open2300-1.11 W/m2
07:11 46.2 °F 33.4 °F 30.2 in NNE 3.2 mph 7.6 mph 61 % 0 in open2300-1.11 W/m2
08:10 49.6 °F 32.4 °F 30.2 in NNE 5.0 mph 6.1 mph 51 % 0 in open2300-1.11 W/m2
09:11 50.4 °F 30.7 °F 30.2 in NNW 3.5 mph 7.2 mph 47 % 0 in open2300-1.11 W/m2
10:11 53.2 °F 30 °F 30.2 in NNW 5.5 mph 5.8 mph 41 % 0 in open2300-1.11 W/m2
12:10 63.5 °F 35.2 °F 30.2 in SSW 6.4 mph 6.4 mph 35 % 0 in open2300-1.11 W/m2
13:11 64.6 °F 34 °F 30.2 in SW 6.4 mph 6.4 mph 32 % 0 in open2300-1.11 W/m2
14:11 65.1 °F 38.8 °F 30.2 in SE 5.8 mph 6.8 mph 38 % 0 in open2300-1.11 W/m2
15:11 63.1 °F 30.2 °F 30.2 in NW 33.5 mph 33.5 mph 29 % 0 in open2300-1.11 W/m2
16:10 61.7 °F 26.1 °F 30.2 in NW 28.2 mph 28.2 mph 26 % 0 in open2300-1.11 W/m2
17:11 62.4 °F 28.6 °F 30.2 in NW 7.2 mph 28.8 mph 28 % 0 in open2300-1.11 W/m2
18:11 61.2 °F 29.5 °F 30.2 in NW 6.1 mph 15.8 mph 30 % 0 in open2300-1.11 W/m2
19:10 59.9 °F 26.4 °F 30.2 in NW 18.0 mph 22.7 mph 28 % 0 in open2300-1.11 W/m2
20:11 58.1 °F 28.2 °F 30.2 in WNW 1.8 mph 1.8 mph 32 % 0 in open2300-1.11 W/m2
21:11 55.6 °F 30.2 °F 30.2 in North 14.3 mph 14.3 mph 38 % 0 in open2300-1.11 W/m2
22:11 55 °F 29.7 °F 30.2 in West 3.2 mph 3.2 mph 38 % 0 in open2300-1.11 W/m2
23:11 52.2 °F 29.1 °F 30.2 in NNW 9.7 mph 9.7 mph 41 % 0 in open2300-1.11 W/m2
Observations météo à CASSIS
WU-History script by Weather Underground - 1 mb